Time;durP1;ratioP1;P1;durP2;ratioP2;P2;SDS_P1;SDS_P2;PMS_P1;PMS_P2;Temp;Humidity;BMP_temperature;BMP_pressure;BME280_temperature;BME280_humidity;BME280_pressure;Samples;Min_cycle;Max_cycle;Signal;HPM_P1;HPM_P2
2021/08/04 00:00:03;;;;;;;;;;;;;;;21.57;73.78;100693.09;472254;111;922673;-75
2021/08/04 00:01:08;;;;;;;;;;;;;;;21.57;73.80;100687.55;471675;111;923610;-73
2021/08/04 00:02:12;;;;;;;;;;;;;;;21.58;73.53;100694.77;471439;111;922751;-74
2021/08/04 00:03:15;;;;;;;;;;;;;;;21.59;73.23;100686.16;472487;109;922671;-73
2021/08/04 00:04:19;;;;;;;;;;;;;;;21.59;73.20;100688.94;471948;111;921667;-75
2021/08/04 00:05:22;;;;;;;;;;;;;;;21.61;73.15;100688.66;472746;109;922721;-73
2021/08/04 00:06:26;;;;;;;;;;;;;;;21.60;73.11;100696.16;472718;109;923106;-74
2021/08/04 00:07:29;;;;;;;;;;;;;;;21.60;73.03;100690.60;473030;109;922765;-73
2021/08/04 00:08:32;;;;;;;;;;;;;;;21.61;72.94;100691.44;472842;111;923751;-73
2021/08/04 00:09:36;;;;;;;;;;;;;;;21.59;72.91;100688.94;471866;111;922693;-74
2021/08/04 00:10:40;;;;;;;;;;;;;;;21.58;72.86;100689.22;472204;111;922725;-73
2021/08/04 00:11:43;;;;;;;;;;;;;;;21.57;72.85;100699.48;473374;109;923132;-75
2021/08/04 00:12:46;;;;;;;;;;;;;;;21.55;72.80;100698.13;473020;111;923087;-74
2021/08/04 00:13:49;;;;;;;;;;;;;;;21.52;72.83;100695.90;468280;112;923577;-74
2021/08/04 00:14:52;;;;;;;;;;;;;;;21.50;72.92;100700.92;461252;112;922682;-74
2021/08/04 00:15:56;;;;;;;;;;;;;;;21.49;73.09;100702.03;466596;111;922676;-74
2021/08/04 00:16:59;;;;;;;;;;;;;;;21.49;73.25;100702.86;464622;113;922614;-74
2021/08/04 00:18:03;;;;;;;;;;;;;;;21.50;73.33;100695.38;464816;113;923106;-73
2021/08/04 00:19:06;;;;;;;;;;;;;;;21.50;73.29;100698.95;463795;111;921757;-74
2021/08/04 00:20:10;;;;;;;;;;;;;;;21.51;73.40;100702.55;453075;116;921566;-74
2021/08/04 00:21:13;;;;;;;;;;;;;;;21.51;73.41;100705.33;462392;115;921510;-75
2021/08/04 00:22:16;;;;;;;;;;;;;;;21.52;73.51;100701.45;454408;116;921486;-75
2021/08/04 00:23:19;;;;;;;;;;;;;;;21.52;73.42;100707.00;454423;113;921383;-75
2021/08/04 00:24:24;;;;;;;;;;;;;;;21.52;73.39;100705.05;453696;116;921455;-75
2021/08/04 00:25:28;;;;;;;;;;;;;;;21.54;73.41;100711.16;459628;115;921519;-74
2021/08/04 00:26:31;;;;;;;;;;;;;;;21.54;73.28;100716.71;459614;115;921443;-74
2021/08/04 00:27:35;;;;;;;;;;;;;;;21.55;73.29;100723.09;459235;115;921444;-74
2021/08/04 00:28:38;;;;;;;;;;;;;;;21.54;73.19;100713.94;459039;112;921599;-75
2021/08/04 00:29:41;;;;;;;;;;;;;;;21.54;73.08;100718.66;453753;116;921417;-74
2021/08/04 00:30:45;;;;;;;;;;;;;;;21.52;73.06;100724.48;458412;115;921407;-75
2021/08/04 00:31:48;;;;;;;;;;;;;;;21.52;72.99;100720.88;452539;116;922717;-73
2021/08/04 00:32:54;;;;;;;;;;;;;;;21.49;73.09;100727.83;461441;114;922811;-75
2021/08/04 00:33:56;;;;;;;;;;;;;;;21.49;73.09;100732.55;461575;114;922450;-74
2021/08/04 00:34:59;;;;;;;;;;;;;;;21.49;73.02;100729.77;461608;114;922758;-73
2021/08/04 00:36:03;;;;;;;;;;;;;;;21.44;73.13;100725.08;461778;113;921535;-75
2021/08/04 00:37:06;;;;;;;;;;;;;;;21.44;73.22;100729.80;461363;114;923159;-73
2021/08/04 00:38:11;;;;;;;;;;;;;;;21.42;73.18;100727.30;461916;114;922622;-73
2021/08/04 00:39:15;;;;;;;;;;;;;;;21.41;73.18;100733.12;461576;114;922663;-75
2021/08/04 00:40:19;;;;;;;;;;;;;;;21.40;73.26;100737.83;461802;113;922677;-74
2021/08/04 00:41:23;;;;;;;;;;;;;;;21.40;73.24;100735.06;452023;116;923171;-75
2021/08/04 00:42:26;;;;;;;;;;;;;;;21.40;73.08;100737.00;445132;118;922709;-73
2021/08/04 00:43:29;;;;;;;;;;;;;;;21.38;73.04;100740.08;462443;114;922649;-75
2021/08/04 00:44:32;;;;;;;;;;;;;;;21.37;72.97;100738.41;463680;113;923248;-72
2021/08/04 00:45:36;;;;;;;;;;;;;;;21.37;72.98;100741.19;461232;113;924117;-74
2021/08/04 00:46:41;;;;;;;;;;;;;;;21.37;72.88;100738.41;452351;116;923078;-74
2021/08/04 00:47:45;;;;;;;;;;;;;;;21.36;72.87;100738.69;458916;114;921659;-73
2021/08/04 00:48:49;;;;;;;;;;;;;;;21.33;72.89;100742.88;453682;117;921609;-73
2021/08/04 00:49:52;;;;;;;;;;;;;;;21.32;72.94;100746.75;461823;113;921466;-73
2021/08/04 00:50:55;;;;;;;;;;;;;;;21.32;72.99;100741.20;461232;114;923223;-73
2021/08/04 00:51:59;;;;;;;;;;;;;;;21.32;72.82;100746.75;461575;114;922710;-75
2021/08/04 00:53:19;;;;;;;;;;;;;;;21.32;72.75;100748.69;461373;114;922693;-74
2021/08/04 00:54:22;;;;;;;;;;;;;;;21.28;72.78;100751.18;461132;114;923160;-75
2021/08/04 00:55:26;;;;;;;;;;;;;;;21.25;72.79;100753.70;460994;114;922658;-74
2021/08/04 00:56:30;;;;;;;;;;;;;;;21.22;73.00;100752.33;462039;114;922676;-75
2021/08/04 00:57:33;;;;;;;;;;;;;;;21.20;73.11;100755.37;461375;113;922647;-74
2021/08/04 00:58:38;;;;;;;;;;;;;;;21.20;73.08;100749.00;461559;114;922711;-74
2021/08/04 00:59:42;;;;;;;;;;;;;;;21.18;73.04;100752.05;461187;114;923584;-74
2021/08/04 01:00:50;;;;;;;;;;;;;;;21.16;73.16;100759.00;461116;114;922710;-74
2021/08/04 01:01:57;;;;;;;;;;;;;;;21.14;73.16;100755.63;457258;115;921785;-74
2021/08/04 01:03:03;;;;;;;;;;;;;;;21.11;73.28;100762.59;458060;114;922670;-73
2021/08/04 01:04:08;;;;;;;;;;;;;;;21.11;73.38;100768.13;452570;118;921482;-73
2021/08/04 01:05:13;;;;;;;;;;;;;;;21.11;73.41;100770.91;456665;116;922625;-75
2021/08/04 01:06:19;;;;;;;;;;;;;;;21.11;73.44;100773.67;453716;116;923175;-73
2021/08/04 01:07:39;;;;;;;;;;;;;;;21.13;73.49;100771.44;455944;116;922677;-74
2021/08/04 01:08:44;;;;;;;;;;;;;;;21.13;73.45;100768.66;461818;111;923579;-74
2021/08/04 01:09:51;;;;;;;;;;;;;;;21.15;73.44;100769.26;453399;116;921605;-75
2021/08/04 01:10:55;;;;;;;;;;;;;;;21.16;73.35;100765.38;454021;115;921629;-75
2021/08/04 01:12:03;;;;;;;;;;;;;;;21.18;73.20;100768.68;453991;117;921844;-75
2021/08/04 01:13:08;;;;;;;;;;;;;;;21.19;73.13;100775.06;462327;114;921484;-75
2021/08/04 01:14:13;;;;;;;;;;;;;;;21.20;73.09;100776.73;459537;115;921601;-74
2021/08/04 01:15:18;;;;;;;;;;;;;;;21.20;73.07;100769.25;451748;116;921441;-75
2021/08/04 01:16:25;;;;;;;;;;;;;;;21.21;73.05;100768.14;456521;115;921462;-75
2021/08/04 01:17:29;;;;;;;;;;;;;;;21.23;72.93;100772.58;456613;114;921649;-75
2021/08/04 01:18:35;;;;;;;;;;;;;;;21.23;72.81;100778.93;456576;115;921579;-75
2021/08/04 01:19:40;;;;;;;;;;;;;;;21.23;72.77;100780.91;456512;115;921838;-75
2021/08/04 01:20:43;;;;;;;;;;;;;;;21.23;72.72;100783.67;457333;115;922643;-74
2021/08/04 01:21:48;;;;;;;;;;;;;;;21.22;72.66;100780.06;455815;115;922659;-74
2021/08/04 01:23:09;;;;;;;;;;;;;;;21.21;72.62;100779.23;456776;115;922670;-73
2021/08/04 01:24:17;;;;;;;;;;;;;;;21.21;72.59;100779.23;456706;114;923211;-76
2021/08/04 01:25:21;;;;;;;;;;;;;;;21.21;72.44;100776.45;456875;115;922687;-73
2021/08/04 01:26:31;;;;;;;;;;;;;;;21.20;72.33;100777.56;452105;116;923432;-73
2021/08/04 01:27:35;;;;;;;;;;;;;;;21.19;72.39;100777.84;453028;116;921560;-73
2021/08/04 01:28:46;;;;;;;;;;;;;;;21.17;72.44;100772.56;457694;116;923134;-74
2021/08/04 01:29:49;;;;;;;;;;;;;;;21.16;72.36;100765.38;456578;116;922689;-73
2021/08/04 01:30:54;;;;;;;;;;;;;;;21.16;72.39;100772.86;460166;114;923139;-74
2021/08/04 01:31:59;;;;;;;;;;;;;;;21.14;72.46;100770.36;461546;114;922630;-74
2021/08/04 01:33:03;;;;;;;;;;;;;;;21.14;72.42;100767.59;461943;114;923148;-73
2021/08/04 01:34:07;;;;;;;;;;;;;;;21.14;72.34;100770.36;461416;114;923218;-73
2021/08/04 01:35:10;;;;;;;;;;;;;;;21.14;72.29;100770.36;453631;116;923086;-74
2021/08/04 01:36:18;;;;;;;;;;;;;;;21.14;72.22;100772.27;460923;114;923748;-73
2021/08/04 01:37:22;;;;;;;;;;;;;;;21.12;72.08;100767.00;459212;115;922675;-74
2021/08/04 01:38:27;;;;;;;;;;;;;;;21.12;72.08;100775.31;461706;114;922630;-74
2021/08/04 01:39:32;;;;;;;;;;;;;;;21.11;72.16;100770.91;458461;114;922691;-74
2021/08/04 01:40:36;;;;;;;;;;;;;;;21.10;72.13;100765.63;458119;115;923060;-74
2021/08/04 01:41:40;;;;;;;;;;;;;;;21.08;72.15;100765.91;458556;115;922662;-75
2021/08/04 01:42:44;;;;;;;;;;;;;;;21.06;72.21;100762.56;452581;117;921931;-74
2021/08/04 01:43:50;;;;;;;;;;;;;;;21.05;72.29;100769.25;461968;114;921549;-74
2021/08/04 01:44:55;;;;;;;;;;;;;;;21.02;72.31;100763.41;458737;115;922672;-75
2021/08/04 01:45:59;;;;;;;;;;;;;;;21.02;72.45;100764.24;452729;116;923443;-75
2021/08/04 01:47:03;;;;;;;;;;;;;;;21.01;72.54;100759.80;461731;114;922674;-75
2021/08/04 01:48:07;;;;;;;;;;;;;;;21.01;72.69;100765.34;458109;114;921563;-74
2021/08/04 01:49:12;;;;;;;;;;;;;;;21.01;72.67;100773.66;456522;116;922824;-74
2021/08/04 01:50:16;;;;;;;;;;;;;;;21.01;72.68;100768.13;461056;114;922582;-73
2021/08/04 01:51:22;;;;;;;;;;;;;;;21.00;72.62;100769.26;461118;114;921361;-73
2021/08/04 01:52:26;;;;;;;;;;;;;;;21.00;72.56;100772.03;461313;114;922641;-74
2021/08/04 01:53:30;;;;;;;;;;;;;;;21.01;72.61;100775.60;460674;114;922999;-75
2021/08/04 01:54:35;;;;;;;;;;;;;;;21.01;72.60;100781.15;461423;111;921556;-75
2021/08/04 01:55:38;;;;;;;;;;;;;;;21.00;72.51;100785.06;461005;114;921436;-75
2021/08/04 01:56:41;;;;;;;;;;;;;;;20.99;72.57;100781.45;461337;114;921463;-74
2021/08/04 01:57:45;;;;;;;;;;;;;;;21.00;72.61;100782.28;461528;114;921542;-74
2021/08/04 01:58:48;;;;;;;;;;;;;;;20.98;72.62;100774.23;461369;114;921528;-74
2021/08/04 01:59:51;;;;;;;;;;;;;;;20.98;72.63;100776.17;460637;113;921567;-74
2021/08/04 02:00:55;;;;;;;;;;;;;;;20.98;72.53;100785.33;460775;114;921518;-74
2021/08/04 02:02:00;;;;;;;;;;;;;;;20.97;72.49;100780.89;461689;114;921500;-74
2021/08/04 02:03:04;;;;;;;;;;;;;;;20.96;72.57;100781.98;451685;114;921787;-74
2021/08/04 02:04:07;;;;;;;;;;;;;;;20.93;72.61;100777.02;461258;114;921643;-74
2021/08/04 02:05:10;;;;;;;;;;;;;;;20.92;72.65;100775.34;461446;114;921587;-74
2021/08/04 02:06:15;;;;;;;;;;;;;;;20.93;72.67;100785.34;461777;114;921342;-74
2021/08/04 02:07:20;;;;;;;;;;;;;;;20.93;72.60;100773.41;453835;116;921567;-74
2021/08/04 02:08:31;;;;;;;;;;;;;;;20.93;72.55;100777.02;434399;122;921754;-74
2021/08/04 02:09:48;;;;;;;;;;;;;;;20.94;72.46;100773.14;448205;116;923118;-75
2021/08/04 02:11:10;;;;;;;;;;;;;;;20.94;72.38;100784.23;453793;116;922656;-73
2021/08/04 02:12:14;;;;;;;;;;;;;;;20.94;72.30;100775.91;453505;116;922672;-74
2021/08/04 02:13:19;;;;;;;;;;;;;;;20.94;72.03;100786.17;461660;114;923146;-74
2021/08/04 02:14:24;;;;;;;;;;;;;;;20.92;71.93;100786.44;460726;115;923214;-74
2021/08/04 02:15:29;;;;;;;;;;;;;;;20.88;71.85;100784.50;453167;116;921424;-75
2021/08/04 02:16:37;;;;;;;;;;;;;;;20.84;71.89;100791.72;456526;115;923107;-75
2021/08/04 02:17:42;;;;;;;;;;;;;;;20.78;71.98;100797.23;455086;116;922688;-75
2021/08/04 02:18:47;;;;;;;;;;;;;;;20.72;72.18;100790.06;453372;116;922811;-74
2021/08/04 02:19:52;;;;;;;;;;;;;;;20.70;72.38;100792.27;457828;115;922662;-73
2021/08/04 02:20:58;;;;;;;;;;;;;;;20.68;72.54;100793.63;461454;114;922707;-73
2021/08/04 02:22:06;;;;;;;;;;;;;;;20.67;72.67;100805.85;461314;114;922696;-73
2021/08/04 02:23:14;;;;;;;;;;;;;;;20.66;72.74;100802.25;461968;114;923007;-75
2021/08/04 02:24:18;;;;;;;;;;;;;;;20.67;72.80;100801.14;461348;113;923130;-75
2021/08/04 02:25:23;;;;;;;;;;;;;;;20.68;72.85;100807.48;461105;114;922702;-74
2021/08/04 02:26:28;;;;;;;;;;;;;;;20.68;72.80;100805.55;461886;114;922674;-73
2021/08/04 02:27:33;;;;;;;;;;;;;;;20.68;72.77;100801.95;461815;114;922583;-75
2021/08/04 02:28:38;;;;;;;;;;;;;;;20.67;72.75;100811.39;454579;115;922733;-73
2021/08/04 02:29:43;;;;;;;;;;;;;;;20.66;72.73;100815.27;453083;114;922684;-74
2021/08/04 02:30:47;;;;;;;;;;;;;;;20.65;72.82;100813.59;461776;114;922731;-73
2021/08/04 02:31:51;;;;;;;;;;;;;;;20.64;72.97;100809.16;461718;114;922680;-74
2021/08/04 02:32:54;;;;;;;;;;;;;;;20.63;72.99;100808.33;453759;115;922678;-73
2021/08/04 02:33:59;;;;;;;;;;;;;;;20.64;72.98;100804.45;455042;114;923186;-75
2021/08/04 02:35:03;;;;;;;;;;;;;;;20.66;72.94;100812.50;462066;114;922654;-74
2021/08/04 02:36:06;;;;;;;;;;;;;;;20.65;72.92;100803.34;461379;114;923155;-75
2021/08/04 02:37:09;;;;;;;;;;;;;;;20.68;72.81;100801.95;461328;113;922802;-73
2021/08/04 02:38:13;;;;;;;;;;;;;;;20.69;72.83;100800.84;461438;114;925634;-74
2021/08/04 02:39:16;;;;;;;;;;;;;;;20.69;72.85;100806.39;461462;114;923632;-75
2021/08/04 02:40:20;;;;;;;;;;;;;;;20.69;72.87;100812.77;461820;114;923040;-74
2021/08/04 02:41:23;;;;;;;;;;;;;;;20.69;72.83;100809.16;461996;113;922678;-73
2021/08/04 02:42:27;;;;;;;;;;;;;;;20.71;72.79;100810.56;461478;114;922672;-73
2021/08/04 02:43:41;;;;;;;;;;;;;;;20.72;72.63;100815.00;461450;114;922726;-75
2021/08/04 02:44:44;;;;;;;;;;;;;;;20.73;72.53;100804.75;446206;116;922729;-74
2021/08/04 02:45:48;;;;;;;;;;;;;;;20.76;72.49;100812.50;446019;118;922700;-74
2021/08/04 02:46:52;;;;;;;;;;;;;;;20.77;72.45;100808.62;446390;118;923076;-74
2021/08/04 02:47:55;;;;;;;;;;;;;;;20.77;72.30;100814.16;445447;118;922722;-74
2021/08/04 02:48:58;;;;;;;;;;;;;;;20.78;72.12;100813.06;446181;117;921604;-74
2021/08/04 02:50:03;;;;;;;;;;;;;;;20.77;71.93;100808.62;444977;118;921413;-74
2021/08/04 02:51:10;;;;;;;;;;;;;;;20.76;71.89;100809.72;447531;118;921448;-73
2021/08/04 02:52:15;;;;;;;;;;;;;;;20.76;71.92;100815.27;439674;120;921489;-74
2021/08/04 02:53:20;;;;;;;;;;;;;;;20.76;71.90;100812.50;444510;118;921461;-74
2021/08/04 02:54:23;;;;;;;;;;;;;;;20.76;71.91;100815.27;431973;121;921662;-75
2021/08/04 02:55:26;;;;;;;;;;;;;;;20.74;71.73;100814.70;431632;120;921522;-75
2021/08/04 02:56:29;;;;;;;;;;;;;;;20.74;71.69;100814.70;445258;118;921498;-74
2021/08/04 02:57:33;;;;;;;;;;;;;;;20.73;71.74;100818.60;443031;118;921440;-73
2021/08/04 02:58:37;;;;;;;;;;;;;;;20.72;71.84;100820.55;436866;120;921639;-74
2021/08/04 02:59:40;;;;;;;;;;;;;;;20.72;71.71;100820.55;443713;118;921423;-74
2021/08/04 03:00:44;;;;;;;;;;;;;;;20.71;71.57;100818.88;445732;118;921390;-74
2021/08/04 03:01:47;;;;;;;;;;;;;;;20.70;71.59;100819.14;442296;119;921537;-73
2021/08/04 03:02:51;;;;;;;;;;;;;;;20.69;71.65;100815.53;445048;118;922579;-74
2021/08/04 03:03:54;;;;;;;;;;;;;;;20.70;71.70;100819.14;442508;119;923144;-74
2021/08/04 03:04:58;;;;;;;;;;;;;;;20.70;71.65;100819.14;436381;120;922651;-73
2021/08/04 03:06:01;;;;;;;;;;;;;;;20.69;71.71;100817.47;445652;118;923176;-73
2021/08/04 03:07:04;;;;;;;;;;;;;;;20.68;71.71;100816.64;444766;118;922706;-74
2021/08/04 03:08:08;;;;;;;;;;;;;;;20.68;71.75;100819.41;440108;120;922675;-75
2021/08/04 03:09:11;;;;;;;;;;;;;;;20.69;71.68;100825.78;445914;118;922811;-73
2021/08/04 03:10:14;;;;;;;;;;;;;;;20.67;71.77;100815.00;445353;118;922702;-75
2021/08/04 03:11:18;;;;;;;;;;;;;;;20.67;71.81;100819.70;444910;118;922672;-73
2021/08/04 03:12:21;;;;;;;;;;;;;;;20.65;71.74;100822.74;446806;118;922720;-74
2021/08/04 03:13:25;;;;;;;;;;;;;;;20.65;71.78;100821.91;445198;118;922663;-74
2021/08/04 03:14:28;;;;;;;;;;;;;;;20.64;71.79;100818.30;444041;118;925282;-75
2021/08/04 03:15:33;;;;;;;;;;;;;;;20.65;71.72;100827.45;445997;118;922741;-75
2021/08/04 03:16:36;;;;;;;;;;;;;;;20.66;71.74;100834.66;444314;118;923007;-74
2021/08/04 03:17:40;;;;;;;;;;;;;;;20.66;71.67;100831.89;443050;119;922605;-74
2021/08/04 03:18:43;;;;;;;;;;;;;;;20.67;71.61;100833.56;440952;120;923864;-74
2021/08/04 03:19:46;;;;;;;;;;;;;;;20.66;71.66;100835.50;437707;120;922688;-74
2021/08/04 03:20:50;;;;;;;;;;;;;;;20.67;71.65;100830.79;445482;118;922640;-75
2021/08/04 03:21:53;;;;;;;;;;;;;;;20.67;71.62;100839.10;442241;119;922695;-75
2021/08/04 03:22:56;;;;;;;;;;;;;;;20.66;71.71;100837.43;444069;118;922651;-74
2021/08/04 03:24:00;;;;;;;;;;;;;;;20.67;71.56;100842.70;442291;119;923709;-73
2021/08/04 03:25:03;;;;;;;;;;;;;;;20.67;71.47;100842.70;440857;120;922725;-74
2021/08/04 03:26:07;;;;;;;;;;;;;;;20.67;71.45;100848.25;444758;118;923162;-73
2021/08/04 03:27:10;;;;;;;;;;;;;;;20.68;71.52;100851.83;442713;119;922677;-74
2021/08/04 03:28:13;;;;;;;;;;;;;;;20.69;71.49;100845.18;445005;118;923216;-75
2021/08/04 03:29:16;;;;;;;;;;;;;;;20.70;71.40;100842.14;441879;119;921398;-74
2021/08/04 03:30:20;;;;;;;;;;;;;;;20.70;71.21;100841.31;445270;118;922706;-75
2021/08/04 03:31:23;;;;;;;;;;;;;;;20.70;71.21;100838.53;439723;120;922708;-74
2021/08/04 03:32:26;;;;;;;;;;;;;;;20.70;71.08;100841.31;438755;120;922631;-75
2021/08/04 03:33:29;;;;;;;;;;;;;;;20.68;71.13;100847.11;446363;118;922269;-74
2021/08/04 03:34:33;;;;;;;;;;;;;;;20.69;71.23;100842.41;435224;121;922727;-75
2021/08/04 03:35:36;;;;;;;;;;;;;;;20.69;71.33;100847.95;442382;119;922735;-76
2021/08/04 03:36:39;;;;;;;;;;;;;;;20.71;71.41;100851.29;442330;119;923857;-74
2021/08/04 03:37:43;;;;;;;;;;;;;;;20.72;71.32;100845.48;433455;121;922734;-75
2021/08/04 03:38:46;;;;;;;;;;;;;;;20.74;71.18;100851.56;436840;121;922750;-75
2021/08/04 03:39:49;;;;;;;;;;;;;;;20.76;71.08;100848.52;444566;118;922669;-74
2021/08/04 03:40:52;;;;;;;;;;;;;;;20.78;71.01;100849.09;444352;118;924704;-73
2021/08/04 03:41:55;;;;;;;;;;;;;;;20.77;71.05;100851.02;437047;119;922657;-75
2021/08/04 03:42:58;;;;;;;;;;;;;;;20.77;71.10;100850.19;443842;118;923333;-73
2021/08/04 03:44:02;;;;;;;;;;;;;;;20.78;71.10;100851.86;436157;120;921606;-75
2021/08/04 03:45:06;;;;;;;;;;;;;;;20.78;71.14;100854.63;439768;119;921619;-75
2021/08/04 03:46:09;;;;;;;;;;;;;;;20.78;71.15;100858.20;432592;122;921520;-76
2021/08/04 03:47:12;;;;;;;;;;;;;;;20.81;71.06;100865.16;431831;122;921453;-75
2021/08/04 03:48:16;;;;;;;;;;;;;;;20.83;71.03;100870.43;431765;122;921622;-75
2021/08/04 03:49:19;;;;;;;;;;;;;;;20.84;71.13;100870.13;431933;121;921528;-75
2021/08/04 03:50:22;;;;;;;;;;;;;;;20.86;70.98;100865.16;432348;122;921389;-75
2021/08/04 03:51:26;;;;;;;;;;;;;;;20.87;70.78;100864.05;439466;120;921533;-76
2021/08/04 03:52:29;;;;;;;;;;;;;;;20.90;70.66;100869.03;433248;121;921536;-75
2021/08/04 03:53:32;;;;;;;;;;;;;;;20.92;70.49;100865.98;439489;119;921712;-74
2021/08/04 03:54:36;;;;;;;;;;;;;;;20.93;70.56;100867.66;435232;122;921520;-74
2021/08/04 03:55:39;;;;;;;;;;;;;;;20.95;70.63;100865.45;432659;121;922601;-74
2021/08/04 03:56:42;;;;;;;;;;;;;;;20.98;70.72;100868.49;432590;121;922717;-74
2021/08/04 03:57:45;;;;;;;;;;;;;;;21.02;70.67;100865.98;430177;122;922626;-74
2021/08/04 03:58:48;;;;;;;;;;;;;;;21.03;70.57;100868.49;430187;122;922773;-75
2021/08/04 03:59:52;;;;;;;;;;;;;;;21.04;70.46;100864.62;439773;120;922748;-76
2021/08/04 04:01:01;;;;;;;;;;;;;;;21.06;70.34;100867.13;437202;120;924887;-75
2021/08/04 04:02:17;;;;;;;;;;;;;;;21.07;70.23;100865.98;433449;122;923050;-75
2021/08/04 04:03:20;;;;;;;;;;;;;;;21.10;70.22;100870.99;434725;122;922937;-73
2021/08/04 04:04:23;;;;;;;;;;;;;;;21.11;70.13;100870.73;430969;120;923163;-74
2021/08/04 04:05:27;;;;;;;;;;;;;;;21.13;69.92;100868.48;432195;121;922621;-74
2021/08/04 04:06:30;;;;;;;;;;;;;;;21.15;69.76;100871.86;433378;122;922709;-76
2021/08/04 04:07:34;;;;;;;;;;;;;;;21.17;69.55;100871.59;431450;122;923168;-75
2021/08/04 04:08:37;;;;;;;;;;;;;;;21.18;69.56;100874.06;437267;120;923645;-74
2021/08/04 04:09:40;;;;;;;;;;;;;;;21.20;69.42;100871.02;438321;120;922850;-73
2021/08/04 04:10:43;;;;;;;;;;;;;;;21.22;69.13;100879.91;437942;120;923172;-75
2021/08/04 04:11:47;;;;;;;;;;;;;;;21.23;69.11;100878.77;437332;120;922657;-76
2021/08/04 04:12:50;;;;;;;;;;;;;;;21.25;68.90;100871.02;437770;119;922866;-74
2021/08/04 04:13:53;;;;;;;;;;;;;;;21.26;68.94;100885.72;433998;121;922761;-73
2021/08/04 04:14:57;;;;;;;;;;;;;;;21.27;68.85;100876.29;433169;122;922633;-74
2021/08/04 04:16:00;;;;;;;;;;;;;;;21.26;68.90;100871.84;439581;119;922848;-75
2021/08/04 04:17:04;;;;;;;;;;;;;;;21.28;68.91;100878.77;430626;121;922766;-75
2021/08/04 04:18:07;;;;;;;;;;;;;;;21.29;68.94;100879.59;433006;121;922764;-75
2021/08/04 04:19:10;;;;;;;;;;;;;;;21.29;68.94;100880.43;432127;119;922797;-74
2021/08/04 04:20:13;;;;;;;;;;;;;;;21.30;68.86;100876.55;432133;122;922682;-76
2021/08/04 04:21:17;;;;;;;;;;;;;;;21.32;68.46;100882.66;432966;121;924176;-75
2021/08/04 04:22:20;;;;;;;;;;;;;;;21.33;68.41;100878.78;432217;121;924530;-74
2021/08/04 04:23:23;;;;;;;;;;;;;;;21.34;68.50;100877.65;431181;120;922980;-73
2021/08/04 04:24:27;;;;;;;;;;;;;;;21.37;68.45;100879.05;436975;120;922603;-73
2021/08/04 04:25:30;;;;;;;;;;;;;;;21.38;68.35;100877.95;435964;120;922657;-73
2021/08/04 04:26:33;;;;;;;;;;;;;;;21.40;68.40;100875.70;435912;120;922710;-76
2021/08/04 04:27:37;;;;;;;;;;;;;;;21.40;68.40;100873.77;437250;120;922705;-74
2021/08/04 04:28:40;;;;;;;;;;;;;;;21.43;68.18;100883.48;432866;122;923652;-74
2021/08/04 04:29:59;;;;;;;;;;;;;;;21.44;67.93;100882.38;435181;122;922840;-75
2021/08/04 04:31:49;;;;;;;;;;;;;;;21.45;67.76;100870.14;431363;122;922602;-75
2021/08/04 04:32:52;;;;;;;;;;;;;;;21.49;67.37;100879.59;432907;122;923900;-72
2021/08/04 04:33:55;;;;;;;;;;;;;;;21.51;67.20;100883.73;437070;120;923114;-78
2021/08/04 04:34:58;;;;;;;;;;;;;;;21.52;66.89;100879.86;437220;120;921618;-76
2021/08/04 04:36:02;;;;;;;;;;;;;;;21.53;66.78;100875.98;437357;120;921600;-75
2021/08/04 04:37:05;;;;;;;;;;;;;;;21.55;66.72;100876.53;437258;120;921444;-75
2021/08/04 04:38:08;;;;;;;;;;;;;;;21.57;66.61;100887.33;438540;120;921425;-74
2021/08/04 04:39:11;;;;;;;;;;;;;;;21.58;66.47;100886.23;438040;120;921622;-75
2021/08/04 04:40:15;;;;;;;;;;;;;;;21.60;66.33;100884.84;437888;120;921558;-75
2021/08/04 04:41:18;;;;;;;;;;;;;;;21.63;66.28;100892.59;436985;120;921470;-74
2021/08/04 04:42:22;;;;;;;;;;;;;;;21.64;66.32;100888.72;435757;120;921497;-74
2021/08/04 04:43:25;;;;;;;;;;;;;;;21.67;66.27;100886.51;437874;120;921464;-75
2021/08/04 04:44:28;;;;;;;;;;;;;;;21.70;66.16;100891.48;437879;120;922574;-75
2021/08/04 04:45:31;;;;;;;;;;;;;;;21.71;66.08;100891.20;443381;118;922690;-74
2021/08/04 04:46:36;;;;;;;;;;;;;;;21.74;65.92;100893.41;442730;118;923207;-74
2021/08/04 04:47:39;;;;;;;;;;;;;;;21.76;65.81;100890.36;455398;115;922717;-75
2021/08/04 04:48:42;;;;;;;;;;;;;;;21.79;65.75;100893.39;454553;115;922744;-73
2021/08/04 04:49:46;;;;;;;;;;;;;;;21.81;65.71;100899.50;456443;115;923069;-75
2021/08/04 04:50:49;;;;;;;;;;;;;;;21.83;65.57;100902.81;455577;115;922650;-73
2021/08/04 04:51:52;;;;;;;;;;;;;;;21.85;65.56;100897.82;455583;115;922718;-74
2021/08/04 04:52:55;;;;;;;;;;;;;;;21.85;65.66;100906.15;455141;115;923152;-75
2021/08/04 04:53:58;;;;;;;;;;;;;;;21.86;65.71;100902.27;455302;115;924182;-74
2021/08/04 04:55:03;;;;;;;;;;;;;;;21.87;65.52;100901.16;455624;115;922736;-75
2021/08/04 04:56:07;;;;;;;;;;;;;;;21.89;65.56;100898.91;455398;115;922732;-75
2021/08/04 04:57:10;;;;;;;;;;;;;;;21.91;65.45;100901.41;456010;115;922732;-74
2021/08/04 04:58:13;;;;;;;;;;;;;;;21.93;65.26;100908.36;456098;115;922721;-74
2021/08/04 04:59:17;;;;;;;;;;;;;;;21.96;65.30;100904.20;456545;115;923145;-75
2021/08/04 05:00:20;;;;;;;;;;;;;;;21.98;65.07;100908.37;456548;115;922640;-75
2021/08/04 05:01:23;;;;;;;;;;;;;;;22.00;64.82;100900.58;456608;115;923159;-75
2021/08/04 05:02:27;;;;;;;;;;;;;;;22.01;64.81;100902.24;456306;115;922649;-75
2021/08/04 05:03:30;;;;;;;;;;;;;;;22.02;64.81;100903.91;457057;115;922528;-75
2021/08/04 05:04:33;;;;;;;;;;;;;;;22.04;64.76;100903.64;456229;115;923264;-75
2021/08/04 05:05:37;;;;;;;;;;;;;;;22.06;64.75;100901.39;455952;115;922683;-74
2021/08/04 05:06:40;;;;;;;;;;;;;;;22.07;64.62;100900.28;456929;115;922748;-74
2021/08/04 05:07:43;;;;;;;;;;;;;;;22.09;64.42;100903.62;457167;115;922638;-75
2021/08/04 05:08:46;;;;;;;;;;;;;;;22.11;64.35;100903.34;455640;115;922656;-75
2021/08/04 05:09:50;;;;;;;;;;;;;;;22.12;64.40;100902.20;455199;115;922651;-74
2021/08/04 05:10:53;;;;;;;;;;;;;;;22.14;64.38;100902.77;455710;115;922653;-74
2021/08/04 05:11:56;;;;;;;;;;;;;;;22.15;64.35;100905.27;454123;115;922804;-72
2021/08/04 05:13:00;;;;;;;;;;;;;;;22.18;64.42;100906.62;455468;115;922695;-74
2021/08/04 05:14:03;;;;;;;;;;;;;;;22.19;64.26;100909.13;454937;115;922714;-72
2021/08/04 05:15:06;;;;;;;;;;;;;;;22.21;64.18;100903.30;455387;115;922713;-74
2021/08/04 05:16:10;;;;;;;;;;;;;;;22.24;64.14;100909.10;457155;115;922635;-74
2021/08/04 05:17:13;;;;;;;;;;;;;;;22.27;64.12;100903.00;456476;115;923185;-75
2021/08/04 05:18:16;;;;;;;;;;;;;;;22.30;64.12;100907.97;456034;115;922650;-73
2021/08/04 05:19:19;;;;;;;;;;;;;;;22.32;64.12;100905.75;454061;116;922789;-74
2021/08/04 05:20:23;;;;;;;;;;;;;;;22.34;64.12;100909.05;453622;115;922670;-74
2021/08/04 05:21:26;;;;;;;;;;;;;;;22.37;64.14;100913.22;456754;115;923561;-74
2021/08/04 05:22:29;;;;;;;;;;;;;;;22.38;63.93;100909.33;456513;115;923144;-72
2021/08/04 05:23:32;;;;;;;;;;;;;;;22.40;63.74;100915.42;456900;115;922687;-75
2021/08/04 05:24:36;;;;;;;;;;;;;;;22.41;63.72;100912.36;456609;115;921468;-75
2021/08/04 05:25:39;;;;;;;;;;;;;;;22.44;63.49;100913.72;456127;115;921414;-76
2021/08/04 05:26:43;;;;;;;;;;;;;;;22.46;63.61;100917.06;455972;115;921485;-75